sensor_id;sensor_type;location;lat;lon;timestamp;P1;durP1;ratioP1;P2;durP2;ratioP2
25437;SDS011;13364;49.084;9.978;2022-12-20T00:01:31;44.03;;;22.70;;
25437;SDS011;13364;49.084;9.978;2022-12-20T00:04:01;43.70;;;22.90;;
25437;SDS011;13364;49.084;9.978;2022-12-20T00:06:32;45.00;;;20.60;;
25437;SDS011;13364;49.084;9.978;2022-12-20T00:09:01;42.80;;;20.67;;
25437;SDS011;13364;49.084;9.978;2022-12-20T00:13:57;41.92;;;21.35;;
25437;SDS011;13364;49.084;9.978;2022-12-20T00:16:25;40.50;;;21.17;;
25437;SDS011;13364;49.084;9.978;2022-12-20T00:18:54;47.63;;;21.50;;
25437;SDS011;13364;49.084;9.978;2022-12-20T00:23:51;36.72;;;19.08;;
25437;SDS011;13364;49.084;9.978;2022-12-20T00:26:20;43.90;;;21.30;;
25437;SDS011;13364;49.084;9.978;2022-12-20T00:28:51;39.00;;;19.85;;
25437;SDS011;13364;49.084;9.978;2022-12-20T00:31:19;38.85;;;20.20;;
25437;SDS011;13364;49.084;9.978;2022-12-20T00:33:48;46.78;;;21.38;;
25437;SDS011;13364;49.084;9.978;2022-12-20T00:36:16;42.30;;;21.67;;
25437;SDS011;13364;49.084;9.978;2022-12-20T00:38:45;44.78;;;21.67;;
25437;SDS011;13364;49.084;9.978;2022-12-20T00:41:15;41.28;;;19.77;;
25437;SDS011;13364;49.084;9.978;2022-12-20T00:43:43;38.13;;;20.33;;
25437;SDS011;13364;49.084;9.978;2022-12-20T00:46:11;37.10;;;20.60;;
25437;SDS011;13364;49.084;9.978;2022-12-20T00:48:39;43.53;;;21.13;;
25437;SDS011;13364;49.084;9.978;2022-12-20T00:51:08;42.35;;;20.20;;
25437;SDS011;13364;49.084;9.978;2022-12-20T00:53:37;36.85;;;20.60;;
25437;SDS011;13364;49.084;9.978;2022-12-20T00:56:05;43.03;;;21.73;;
25437;SDS011;13364;49.084;9.978;2022-12-20T00:58:34;42.47;;;21.48;;
25437;SDS011;13364;49.084;9.978;2022-12-20T01:03:31;39.05;;;20.02;;
25437;SDS011;13364;49.084;9.978;2022-12-20T01:06:01;40.35;;;21.15;;
25437;SDS011;13364;49.084;9.978;2022-12-20T01:08:29;43.30;;;21.98;;
25437;SDS011;13364;49.084;9.978;2022-12-20T01:11:04;38.63;;;21.23;;
25437;SDS011;13364;49.084;9.978;2022-12-20T01:13:34;40.90;;;19.85;;
25437;SDS011;13364;49.084;9.978;2022-12-20T01:18:34;39.22;;;20.27;;
25437;SDS011;13364;49.084;9.978;2022-12-20T01:21:02;41.22;;;20.48;;
25437;SDS011;13364;49.084;9.978;2022-12-20T01:23:31;39.10;;;19.70;;
25437;SDS011;13364;49.084;9.978;2022-12-20T01:26:02;37.47;;;20.17;;
25437;SDS011;13364;49.084;9.978;2022-12-20T01:28:31;39.80;;;19.45;;
25437;SDS011;13364;49.084;9.978;2022-12-20T01:30:58;46.15;;;21.48;;
25437;SDS011;13364;49.084;9.978;2022-12-20T01:33:25;41.88;;;21.27;;
25437;SDS011;13364;49.084;9.978;2022-12-20T01:35:57;45.22;;;21.10;;
25437;SDS011;13364;49.084;9.978;2022-12-20T01:38:26;39.80;;;20.90;;
25437;SDS011;13364;49.084;9.978;2022-12-20T01:40:54;42.15;;;20.92;;
25437;SDS011;13364;49.084;9.978;2022-12-20T01:43:23;40.65;;;20.90;;
25437;SDS011;13364;49.084;9.978;2022-12-20T01:45:51;43.03;;;20.97;;
25437;SDS011;13364;49.084;9.978;2022-12-20T01:48:22;44.83;;;21.35;;
25437;SDS011;13364;49.084;9.978;2022-12-20T01:50:51;43.65;;;20.42;;
25437;SDS011;13364;49.084;9.978;2022-12-20T01:53:20;42.47;;;21.02;;
25437;SDS011;13364;49.084;9.978;2022-12-20T01:55:48;42.65;;;20.77;;
25437;SDS011;13364;49.084;9.978;2022-12-20T01:58:16;46.22;;;21.90;;
25437;SDS011;13364;49.084;9.978;2022-12-20T02:00:45;39.47;;;19.30;;
25437;SDS011;13364;49.084;9.978;2022-12-20T02:03:13;40.58;;;20.00;;
25437;SDS011;13364;49.084;9.978;2022-12-20T02:05:43;35.03;;;17.15;;
25437;SDS011;13364;49.084;9.978;2022-12-20T02:08:12;41.70;;;19.77;;
25437;SDS011;13364;49.084;9.978;2022-12-20T02:13:50;37.60;;;19.98;;
25437;SDS011;13364;49.084;9.978;2022-12-20T02:16:29;44.75;;;21.58;;
25437;SDS011;13364;49.084;9.978;2022-12-20T02:19:19;37.67;;;21.20;;
25437;SDS011;13364;49.084;9.978;2022-12-20T02:25:01;47.40;;;21.52;;
25437;SDS011;13364;49.084;9.978;2022-12-20T02:30:19;45.85;;;21.13;;
25437;SDS011;13364;49.084;9.978;2022-12-20T02:32:50;42.88;;;21.63;;
25437;SDS011;13364;49.084;9.978;2022-12-20T02:35:31;41.03;;;21.35;;
25437;SDS011;13364;49.084;9.978;2022-12-20T02:38:03;38.38;;;20.33;;
25437;SDS011;13364;49.084;9.978;2022-12-20T02:40:50;32.30;;;16.00;;
25437;SDS011;13364;49.084;9.978;2022-12-20T02:43:23;38.40;;;19.48;;
25437;SDS011;13364;49.084;9.978;2022-12-20T02:46:11;35.20;;;18.98;;
25437;SDS011;13364;49.084;9.978;2022-12-20T02:48:40;37.42;;;18.70;;
25437;SDS011;13364;49.084;9.978;2022-12-20T02:51:08;39.95;;;21.65;;
25437;SDS011;13364;49.084;9.978;2022-12-20T02:53:37;37.75;;;19.55;;
25437;SDS011;13364;49.084;9.978;2022-12-20T02:56:12;39.40;;;20.08;;
25437;SDS011;13364;49.084;9.978;2022-12-20T02:58:50;37.40;;;19.80;;
25437;SDS011;13364;49.084;9.978;2022-12-20T03:01:30;36.60;;;20.15;;
25437;SDS011;13364;49.084;9.978;2022-12-20T03:04:03;45.33;;;21.15;;
25437;SDS011;13364;49.084;9.978;2022-12-20T03:06:32;41.97;;;20.20;;
25437;SDS011;13364;49.084;9.978;2022-12-20T03:09:00;37.63;;;19.40;;
25437;SDS011;13364;49.084;9.978;2022-12-20T03:11:30;40.25;;;20.33;;
25437;SDS011;13364;49.084;9.978;2022-12-20T03:13:57;36.17;;;18.02;;
25437;SDS011;13364;49.084;9.978;2022-12-20T03:16:24;43.63;;;19.40;;
25437;SDS011;13364;49.084;9.978;2022-12-20T03:18:51;37.13;;;19.17;;
25437;SDS011;13364;49.084;9.978;2022-12-20T03:24:03;33.08;;;16.73;;
25437;SDS011;13364;49.084;9.978;2022-12-20T03:26:30;31.27;;;17.33;;
25437;SDS011;13364;49.084;9.978;2022-12-20T03:28:59;30.05;;;16.85;;
25437;SDS011;13364;49.084;9.978;2022-12-20T03:31:26;36.75;;;17.92;;
25437;SDS011;13364;49.084;9.978;2022-12-20T03:33:54;42.90;;;20.20;;
25437;SDS011;13364;49.084;9.978;2022-12-20T03:36:21;30.70;;;16.27;;
25437;SDS011;13364;49.084;9.978;2022-12-20T03:38:56;36.47;;;16.90;;
25437;SDS011;13364;49.084;9.978;2022-12-20T03:41:26;28.88;;;15.40;;
25437;SDS011;13364;49.084;9.978;2022-12-20T03:43:53;17.88;;;10.85;;
25437;SDS011;13364;49.084;9.978;2022-12-20T03:46:21;19.45;;;10.60;;
25437;SDS011;13364;49.084;9.978;2022-12-20T03:48:49;18.98;;;13.15;;
25437;SDS011;13364;49.084;9.978;2022-12-20T03:51:16;18.33;;;9.50;;
25437;SDS011;13364;49.084;9.978;2022-12-20T03:53:43;13.77;;;6.93;;
25437;SDS011;13364;49.084;9.978;2022-12-20T03:56:12;17.05;;;9.48;;
25437;SDS011;13364;49.084;9.978;2022-12-20T03:58:40;28.15;;;13.45;;
25437;SDS011;13364;49.084;9.978;2022-12-20T04:03:46;24.30;;;13.63;;
25437;SDS011;13364;49.084;9.978;2022-12-20T04:06:13;21.08;;;12.00;;
25437;SDS011;13364;49.084;9.978;2022-12-20T04:08:41;20.00;;;11.10;;
25437;SDS011;13364;49.084;9.978;2022-12-20T04:11:10;17.57;;;10.13;;
25437;SDS011;13364;49.084;9.978;2022-12-20T04:13:49;20.52;;;11.82;;
25437;SDS011;13364;49.084;9.978;2022-12-20T04:16:24;20.30;;;10.57;;
25437;SDS011;13364;49.084;9.978;2022-12-20T04:18:53;18.23;;;9.10;;
25437;SDS011;13364;49.084;9.978;2022-12-20T04:21:22;21.95;;;12.02;;
25437;SDS011;13364;49.084;9.978;2022-12-20T04:23:56;15.77;;;9.25;;
25437;SDS011;13364;49.084;9.978;2022-12-20T04:26:33;15.93;;;9.60;;
25437;SDS011;13364;49.084;9.978;2022-12-20T04:29:02;15.32;;;9.25;;
25437;SDS011;13364;49.084;9.978;2022-12-20T04:31:30;16.38;;;9.60;;
25437;SDS011;13364;49.084;9.978;2022-12-20T04:33:58;17.05;;;10.30;;
25437;SDS011;13364;49.084;9.978;2022-12-20T04:36:27;30.70;;;16.70;;
25437;SDS011;13364;49.084;9.978;2022-12-20T04:38:55;51.30;;;27.73;;
25437;SDS011;13364;49.084;9.978;2022-12-20T04:41:22;29.77;;;16.02;;
25437;SDS011;13364;49.084;9.978;2022-12-20T04:43:55;23.88;;;11.70;;
25437;SDS011;13364;49.084;9.978;2022-12-20T04:46:31;21.33;;;12.73;;
25437;SDS011;13364;49.084;9.978;2022-12-20T04:48:59;23.52;;;11.85;;
25437;SDS011;13364;49.084;9.978;2022-12-20T04:51:29;24.08;;;13.00;;
25437;SDS011;13364;49.084;9.978;2022-12-20T04:53:57;28.70;;;14.18;;
25437;SDS011;13364;49.084;9.978;2022-12-20T04:56:39;26.15;;;13.73;;
25437;SDS011;13364;49.084;9.978;2022-12-20T05:01:39;26.90;;;13.75;;
25437;SDS011;13364;49.084;9.978;2022-12-20T05:04:07;28.75;;;13.95;;
25437;SDS011;13364;49.084;9.978;2022-12-20T05:06:35;27.00;;;15.35;;
25437;SDS011;13364;49.084;9.978;2022-12-20T05:09:03;29.38;;;15.10;;
25437;SDS011;13364;49.084;9.978;2022-12-20T05:11:31;26.10;;;15.07;;
25437;SDS011;13364;49.084;9.978;2022-12-20T05:13:59;24.33;;;14.10;;
25437;SDS011;13364;49.084;9.978;2022-12-20T05:16:26;26.35;;;14.55;;
25437;SDS011;13364;49.084;9.978;2022-12-20T05:18:54;26.00;;;13.52;;
25437;SDS011;13364;49.084;9.978;2022-12-20T05:21:21;26.48;;;13.70;;
25437;SDS011;13364;49.084;9.978;2022-12-20T05:24:08;25.92;;;13.35;;
25437;SDS011;13364;49.084;9.978;2022-12-20T05:27:17;42.72;;;25.65;;
25437;SDS011;13364;49.084;9.978;2022-12-20T05:29:45;42.95;;;23.77;;
25437;SDS011;13364;49.084;9.978;2022-12-20T05:32:12;38.25;;;20.20;;
25437;SDS011;13364;49.084;9.978;2022-12-20T05:37:09;24.27;;;14.25;;
25437;SDS011;13364;49.084;9.978;2022-12-20T05:39:38;27.40;;;15.10;;
25437;SDS011;13364;49.084;9.978;2022-12-20T05:42:11;27.52;;;15.18;;
25437;SDS011;13364;49.084;9.978;2022-12-20T05:44:38;32.70;;;16.60;;
25437;SDS011;13364;49.084;9.978;2022-12-20T05:47:05;30.95;;;16.23;;
25437;SDS011;13364;49.084;9.978;2022-12-20T05:49:34;25.75;;;14.98;;
25437;SDS011;13364;49.084;9.978;2022-12-20T05:52:03;28.63;;;15.35;;
25437;SDS011;13364;49.084;9.978;2022-12-20T05:54:32;24.77;;;13.75;;
25437;SDS011;13364;49.084;9.978;2022-12-20T05:57:15;26.88;;;13.98;;
25437;SDS011;13364;49.084;9.978;2022-12-20T05:59:42;29.73;;;14.80;;
25437;SDS011;13364;49.084;9.978;2022-12-20T06:02:19;25.35;;;13.75;;
25437;SDS011;13364;49.084;9.978;2022-12-20T06:04:50;24.15;;;13.90;;
25437;SDS011;13364;49.084;9.978;2022-12-20T06:07:20;25.73;;;14.48;;
25437;SDS011;13364;49.084;9.978;2022-12-20T06:09:51;25.00;;;15.07;;
25437;SDS011;13364;49.084;9.978;2022-12-20T06:12:23;25.10;;;14.05;;
25437;SDS011;13364;49.084;9.978;2022-12-20T06:14:51;26.20;;;15.00;;
25437;SDS011;13364;49.084;9.978;2022-12-20T06:17:18;24.88;;;14.02;;
25437;SDS011;13364;49.084;9.978;2022-12-20T06:19:47;26.70;;;14.13;;
25437;SDS011;13364;49.084;9.978;2022-12-20T06:22:15;25.23;;;14.20;;
25437;SDS011;13364;49.084;9.978;2022-12-20T06:24:54;32.63;;;15.73;;
25437;SDS011;13364;49.084;9.978;2022-12-20T06:27:25;21.42;;;13.60;;
25437;SDS011;13364;49.084;9.978;2022-12-20T06:30:01;26.95;;;14.32;;
25437;SDS011;13364;49.084;9.978;2022-12-20T06:32:43;26.08;;;14.55;;
25437;SDS011;13364;49.084;9.978;2022-12-20T06:35:11;29.52;;;16.30;;
25437;SDS011;13364;49.084;9.978;2022-12-20T06:37:39;28.13;;;15.63;;
25437;SDS011;13364;49.084;9.978;2022-12-20T06:40:07;31.92;;;15.57;;
25437;SDS011;13364;49.084;9.978;2022-12-20T06:42:36;29.10;;;16.58;;
25437;SDS011;13364;49.084;9.978;2022-12-20T06:45:05;26.75;;;15.13;;
25437;SDS011;13364;49.084;9.978;2022-12-20T06:47:32;33.72;;;18.30;;
25437;SDS011;13364;49.084;9.978;2022-12-20T06:50:01;34.65;;;19.67;;
25437;SDS011;13364;49.084;9.978;2022-12-20T06:52:30;36.30;;;18.65;;
25437;SDS011;13364;49.084;9.978;2022-12-20T06:54:57;28.35;;;16.30;;
25437;SDS011;13364;49.084;9.978;2022-12-20T06:57:25;27.00;;;16.70;;
25437;SDS011;13364;49.084;9.978;2022-12-20T06:59:53;32.40;;;16.13;;
25437;SDS011;13364;49.084;9.978;2022-12-20T07:02:20;26.15;;;14.43;;
25437;SDS011;13364;49.084;9.978;2022-12-20T07:04:52;30.33;;;17.45;;
25437;SDS011;13364;49.084;9.978;2022-12-20T07:07:19;32.58;;;17.30;;
25437;SDS011;13364;49.084;9.978;2022-12-20T07:09:46;27.85;;;16.63;;
25437;SDS011;13364;49.084;9.978;2022-12-20T07:12:13;30.15;;;14.85;;
25437;SDS011;13364;49.084;9.978;2022-12-20T07:14:41;25.55;;;15.25;;
25437;SDS011;13364;49.084;9.978;2022-12-20T07:17:08;25.75;;;14.02;;
25437;SDS011;13364;49.084;9.978;2022-12-20T07:19:36;26.08;;;14.93;;
25437;SDS011;13364;49.084;9.978;2022-12-20T07:22:03;26.83;;;13.98;;
25437;SDS011;13364;49.084;9.978;2022-12-20T07:24:31;27.02;;;14.05;;
25437;SDS011;13364;49.084;9.978;2022-12-20T07:26:59;30.40;;;13.98;;
25437;SDS011;13364;49.084;9.978;2022-12-20T07:29:27;26.83;;;14.98;;
25437;SDS011;13364;49.084;9.978;2022-12-20T07:31:54;24.85;;;13.68;;
25437;SDS011;13364;49.084;9.978;2022-12-20T07:34:21;24.83;;;14.80;;
25437;SDS011;13364;49.084;9.978;2022-12-20T07:36:48;28.88;;;15.15;;
25437;SDS011;13364;49.084;9.978;2022-12-20T07:39:15;25.75;;;14.82;;
25437;SDS011;13364;49.084;9.978;2022-12-20T07:41:46;25.73;;;15.55;;
25437;SDS011;13364;49.084;9.978;2022-12-20T07:44:15;28.85;;;16.13;;
25437;SDS011;13364;49.084;9.978;2022-12-20T07:46:42;25.27;;;15.02;;
25437;SDS011;13364;49.084;9.978;2022-12-20T07:49:09;29.70;;;15.93;;
25437;SDS011;13364;49.084;9.978;2022-12-20T07:51:43;29.92;;;16.45;;
25437;SDS011;13364;49.084;9.978;2022-12-20T07:54:16;29.20;;;15.43;;
25437;SDS011;13364;49.084;9.978;2022-12-20T07:56:48;27.17;;;14.43;;
25437;SDS011;13364;49.084;9.978;2022-12-20T07:59:19;25.80;;;15.35;;
25437;SDS011;13364;49.084;9.978;2022-12-20T08:01:50;25.42;;;15.10;;
25437;SDS011;13364;49.084;9.978;2022-12-20T08:04:19;27.17;;;14.45;;
25437;SDS011;13364;49.084;9.978;2022-12-20T08:06:50;26.15;;;13.85;;
25437;SDS011;13364;49.084;9.978;2022-12-20T08:09:21;22.70;;;13.70;;
25437;SDS011;13364;49.084;9.978;2022-12-20T08:11:51;26.98;;;14.30;;
25437;SDS011;13364;49.084;9.978;2022-12-20T08:14:18;28.65;;;15.25;;
25437;SDS011;13364;49.084;9.978;2022-12-20T08:16:46;26.85;;;14.38;;
25437;SDS011;13364;49.084;9.978;2022-12-20T08:19:13;26.30;;;15.38;;
25437;SDS011;13364;49.084;9.978;2022-12-20T08:21:40;27.35;;;14.93;;
25437;SDS011;13364;49.084;9.978;2022-12-20T08:24:07;27.13;;;14.68;;
25437;SDS011;13364;49.084;9.978;2022-12-20T08:26:38;26.85;;;15.70;;
25437;SDS011;13364;49.084;9.978;2022-12-20T08:29:07;32.35;;;16.67;;
25437;SDS011;13364;49.084;9.978;2022-12-20T08:31:38;33.05;;;16.25;;
25437;SDS011;13364;49.084;9.978;2022-12-20T08:34:14;28.58;;;15.43;;
25437;SDS011;13364;49.084;9.978;2022-12-20T08:36:41;43.03;;;21.30;;
25437;SDS011;13364;49.084;9.978;2022-12-20T08:39:09;43.65;;;24.10;;
25437;SDS011;13364;49.084;9.978;2022-12-20T08:41:37;44.10;;;23.65;;
25437;SDS011;13364;49.084;9.978;2022-12-20T08:44:04;28.50;;;17.63;;
25437;SDS011;13364;49.084;9.978;2022-12-20T08:46:32;31.80;;;19.63;;
25437;SDS011;13364;49.084;9.978;2022-12-20T08:48:59;29.98;;;18.05;;
25437;SDS011;13364;49.084;9.978;2022-12-20T08:51:26;34.40;;;18.55;;
25437;SDS011;13364;49.084;9.978;2022-12-20T08:53:54;27.45;;;16.70;;
25437;SDS011;13364;49.084;9.978;2022-12-20T08:56:22;30.80;;;17.83;;
25437;SDS011;13364;49.084;9.978;2022-12-20T08:58:49;36.33;;;17.75;;
25437;SDS011;13364;49.084;9.978;2022-12-20T09:01:17;29.45;;;17.38;;
25437;SDS011;13364;49.084;9.978;2022-12-20T09:03:46;32.53;;;17.95;;
25437;SDS011;13364;49.084;9.978;2022-12-20T09:06:16;31.65;;;17.15;;
25437;SDS011;13364;49.084;9.978;2022-12-20T09:08:47;32.55;;;18.00;;
25437;SDS011;13364;49.084;9.978;2022-12-20T09:11:16;28.27;;;17.23;;
25437;SDS011;13364;49.084;9.978;2022-12-20T09:13:46;32.83;;;17.88;;
25437;SDS011;13364;49.084;9.978;2022-12-20T09:16:18;28.17;;;16.52;;
25437;SDS011;13364;49.084;9.978;2022-12-20T09:18:50;27.67;;;16.50;;
25437;SDS011;13364;49.084;9.978;2022-12-20T09:21:23;28.23;;;15.73;;
25437;SDS011;13364;49.084;9.978;2022-12-20T09:23:50;29.80;;;15.88;;
25437;SDS011;13364;49.084;9.978;2022-12-20T09:26:19;27.80;;;13.98;;
25437;SDS011;13364;49.084;9.978;2022-12-20T09:28:47;45.08;;;19.75;;
25437;SDS011;13364;49.084;9.978;2022-12-20T09:31:18;51.00;;;19.30;;
25437;SDS011;13364;49.084;9.978;2022-12-20T09:33:47;54.53;;;22.10;;
25437;SDS011;13364;49.084;9.978;2022-12-20T09:36:16;37.20;;;17.70;;
25437;SDS011;13364;49.084;9.978;2022-12-20T09:38:45;43.22;;;19.38;;
25437;SDS011;13364;49.084;9.978;2022-12-20T09:44:03;35.88;;;17.67;;
25437;SDS011;13364;49.084;9.978;2022-12-20T09:46:41;29.85;;;16.00;;
25437;SDS011;13364;49.084;9.978;2022-12-20T09:49:11;28.25;;;15.35;;
25437;SDS011;13364;49.084;9.978;2022-12-20T09:54:15;28.63;;;16.17;;
25437;SDS011;13364;49.084;9.978;2022-12-20T09:56:50;26.02;;;15.20;;
25437;SDS011;13364;49.084;9.978;2022-12-20T09:59:54;26.08;;;14.63;;
25437;SDS011;13364;49.084;9.978;2022-12-20T10:02:25;24.52;;;15.50;;
25437;SDS011;13364;49.084;9.978;2022-12-20T10:11:13;22.67;;;13.75;;
25437;SDS011;13364;49.084;9.978;2022-12-20T10:17:03;23.70;;;14.82;;
25437;SDS011;13364;49.084;9.978;2022-12-20T10:22:30;27.33;;;16.15;;
25437;SDS011;13364;49.084;9.978;2022-12-20T10:27:45;31.70;;;15.53;;
25437;SDS011;13364;49.084;9.978;2022-12-20T10:30:14;29.50;;;15.32;;
25437;SDS011;13364;49.084;9.978;2022-12-20T10:32:44;30.55;;;15.40;;
25437;SDS011;13364;49.084;9.978;2022-12-20T10:35:21;23.80;;;14.53;;
25437;SDS011;13364;49.084;9.978;2022-12-20T10:38:10;28.27;;;13.80;;
25437;SDS011;13364;49.084;9.978;2022-12-20T10:40:40;23.02;;;14.65;;
25437;SDS011;13364;49.084;9.978;2022-12-20T10:43:45;23.70;;;13.43;;
25437;SDS011;13364;49.084;9.978;2022-12-20T10:46:15;24.52;;;15.15;;
25437;SDS011;13364;49.084;9.978;2022-12-20T10:48:43;24.80;;;14.32;;
25437;SDS011;13364;49.084;9.978;2022-12-20T10:51:14;27.83;;;15.10;;
25437;SDS011;13364;49.084;9.978;2022-12-20T10:53:55;29.40;;;16.60;;
25437;SDS011;13364;49.084;9.978;2022-12-20T10:56:25;33.10;;;16.90;;
25437;SDS011;13364;49.084;9.978;2022-12-20T10:59:22;24.48;;;14.18;;
25437;SDS011;13364;49.084;9.978;2022-12-20T11:02:00;26.85;;;16.00;;
25437;SDS011;13364;49.084;9.978;2022-12-20T11:04:33;31.60;;;17.23;;
25437;SDS011;13364;49.084;9.978;2022-12-20T11:07:02;28.27;;;16.50;;
25437;SDS011;13364;49.084;9.978;2022-12-20T11:09:51;22.98;;;13.35;;
25437;SDS011;13364;49.084;9.978;2022-12-20T11:12:23;30.67;;;16.33;;
25437;SDS011;13364;49.084;9.978;2022-12-20T11:14:50;24.13;;;14.68;;
25437;SDS011;13364;49.084;9.978;2022-12-20T11:17:42;28.00;;;15.02;;
25437;SDS011;13364;49.084;9.978;2022-12-20T11:26:54;27.27;;;15.20;;
25437;SDS011;13364;49.084;9.978;2022-12-20T11:35:18;27.45;;;15.05;;
25437;SDS011;13364;49.084;9.978;2022-12-20T11:38:04;26.85;;;15.10;;
25437;SDS011;13364;49.084;9.978;2022-12-20T11:44:17;26.35;;;14.90;;
25437;SDS011;13364;49.084;9.978;2022-12-20T11:47:18;24.25;;;14.88;;
25437;SDS011;13364;49.084;9.978;2022-12-20T11:50:02;25.58;;;16.08;;
25437;SDS011;13364;49.084;9.978;2022-12-20T11:52:38;29.65;;;16.55;;
25437;SDS011;13364;49.084;9.978;2022-12-20T11:55:14;29.67;;;15.23;;
25437;SDS011;13364;49.084;9.978;2022-12-20T11:57:56;26.75;;;15.02;;
25437;SDS011;13364;49.084;9.978;2022-12-20T12:00:46;22.30;;;14.07;;
25437;SDS011;13364;49.084;9.978;2022-12-20T12:03:35;28.33;;;15.27;;
25437;SDS011;13364;49.084;9.978;2022-12-20T12:06:06;39.38;;;18.48;;
25437;SDS011;13364;49.084;9.978;2022-12-20T12:16:56;43.58;;;20.42;;
25437;SDS011;13364;49.084;9.978;2022-12-20T12:19:31;44.60;;;21.50;;
25437;SDS011;13364;49.084;9.978;2022-12-20T12:22:04;42.85;;;21.48;;
25437;SDS011;13364;49.084;9.978;2022-12-20T12:24:38;44.70;;;21.50;;
25437;SDS011;13364;49.084;9.978;2022-12-20T12:27:14;40.42;;;21.92;;
25437;SDS011;13364;49.084;9.978;2022-12-20T12:29:48;29.88;;;18.73;;
25437;SDS011;13364;49.084;9.978;2022-12-20T12:35:06;27.10;;;15.93;;
25437;SDS011;13364;49.084;9.978;2022-12-20T12:40:49;28.80;;;17.10;;
25437;SDS011;13364;49.084;9.978;2022-12-20T12:43:57;30.30;;;17.25;;
25437;SDS011;13364;49.084;9.978;2022-12-20T12:46:44;25.88;;;16.38;;
25437;SDS011;13364;49.084;9.978;2022-12-20T12:49:18;31.30;;;17.92;;
25437;SDS011;13364;49.084;9.978;2022-12-20T12:51:49;27.75;;;16.42;;
25437;SDS011;13364;49.084;9.978;2022-12-20T12:57:02;19.10;;;13.07;;
25437;SDS011;13364;49.084;9.978;2022-12-20T13:10:03;22.23;;;14.32;;
25437;SDS011;13364;49.084;9.978;2022-12-20T13:20:37;20.70;;;13.57;;
25437;SDS011;13364;49.084;9.978;2022-12-20T13:38:36;24.48;;;15.52;;
25437;SDS011;13364;49.084;9.978;2022-12-20T13:49:24;26.08;;;14.65;;
25437;SDS011;13364;49.084;9.978;2022-12-20T13:52:29;21.13;;;12.95;;
25437;SDS011;13364;49.084;9.978;2022-12-20T13:54:52;44.20;;;19.25;;
25437;SDS011;13364;49.084;9.978;2022-12-20T13:57:29;36.63;;;18.38;;
25437;SDS011;13364;49.084;9.978;2022-12-20T13:59:59;21.83;;;12.75;;
25437;SDS011;13364;49.084;9.978;2022-12-20T14:02:34;23.50;;;12.52;;
25437;SDS011;13364;49.084;9.978;2022-12-20T14:05:24;20.95;;;12.85;;
25437;SDS011;13364;49.084;9.978;2022-12-20T14:07:58;23.10;;;13.32;;
25437;SDS011;13364;49.084;9.978;2022-12-20T14:10:33;23.77;;;14.75;;
25437;SDS011;13364;49.084;9.978;2022-12-20T14:13:01;25.38;;;14.82;;
25437;SDS011;13364;49.084;9.978;2022-12-20T14:15:30;26.05;;;14.57;;
25437;SDS011;13364;49.084;9.978;2022-12-20T14:18:05;22.02;;;13.70;;
25437;SDS011;13364;49.084;9.978;2022-12-20T14:20:58;24.15;;;13.98;;
25437;SDS011;13364;49.084;9.978;2022-12-20T14:23:46;21.90;;;13.57;;
25437;SDS011;13364;49.084;9.978;2022-12-20T14:26:17;19.15;;;12.73;;
25437;SDS011;13364;49.084;9.978;2022-12-20T14:28:50;23.77;;;13.25;;
25437;SDS011;13364;49.084;9.978;2022-12-20T14:31:21;22.17;;;13.05;;
25437;SDS011;13364;49.084;9.978;2022-12-20T14:34:00;22.60;;;12.87;;
25437;SDS011;13364;49.084;9.978;2022-12-20T14:36:32;23.13;;;13.77;;
25437;SDS011;13364;49.084;9.978;2022-12-20T14:39:09;22.10;;;13.23;;
25437;SDS011;13364;49.084;9.978;2022-12-20T14:41:55;23.10;;;13.55;;
25437;SDS011;13364;49.084;9.978;2022-12-20T14:44:25;24.90;;;14.00;;
25437;SDS011;13364;49.084;9.978;2022-12-20T14:46:55;23.88;;;13.73;;
25437;SDS011;13364;49.084;9.978;2022-12-20T14:54:44;29.98;;;15.18;;
25437;SDS011;13364;49.084;9.978;2022-12-20T15:00:19;71.00;;;25.63;;
25437;SDS011;13364;49.084;9.978;2022-12-20T15:08:12;19.73;;;12.88;;
25437;SDS011;13364;49.084;9.978;2022-12-20T15:13:27;20.60;;;12.40;;
25437;SDS011;13364;49.084;9.978;2022-12-20T15:16:00;26.65;;;12.85;;
25437;SDS011;13364;49.084;9.978;2022-12-20T15:18:30;28.95;;;14.52;;
25437;SDS011;13364;49.084;9.978;2022-12-20T15:21:01;41.13;;;17.98;;
25437;SDS011;13364;49.084;9.978;2022-12-20T15:23:30;24.00;;;14.57;;
25437;SDS011;13364;49.084;9.978;2022-12-20T15:25:58;24.40;;;14.50;;
25437;SDS011;13364;49.084;9.978;2022-12-20T15:32:07;21.42;;;13.00;;
25437;SDS011;13364;49.084;9.978;2022-12-20T15:34:41;26.77;;;13.20;;
25437;SDS011;13364;49.084;9.978;2022-12-20T15:37:09;32.85;;;14.10;;
25437;SDS011;13364;49.084;9.978;2022-12-20T15:39:44;25.25;;;13.80;;
25437;SDS011;13364;49.084;9.978;2022-12-20T15:42:13;30.90;;;14.02;;
25437;SDS011;13364;49.084;9.978;2022-12-20T15:44:43;33.05;;;19.73;;
25437;SDS011;13364;49.084;9.978;2022-12-20T15:47:14;36.58;;;22.83;;
25437;SDS011;13364;49.084;9.978;2022-12-20T15:49:42;29.55;;;16.92;;
25437;SDS011;13364;49.084;9.978;2022-12-20T15:52:18;25.40;;;15.63;;
25437;SDS011;13364;49.084;9.978;2022-12-20T15:54:47;22.58;;;14.07;;
25437;SDS011;13364;49.084;9.978;2022-12-20T15:57:15;24.52;;;15.45;;
25437;SDS011;13364;49.084;9.978;2022-12-20T15:59:42;25.27;;;15.68;;
25437;SDS011;13364;49.084;9.978;2022-12-20T16:02:36;23.02;;;13.90;;
25437;SDS011;13364;49.084;9.978;2022-12-20T16:05:04;23.55;;;14.68;;
25437;SDS011;13364;49.084;9.978;2022-12-20T16:07:31;27.88;;;14.95;;
25437;SDS011;13364;49.084;9.978;2022-12-20T16:09:59;32.97;;;17.35;;
25437;SDS011;13364;49.084;9.978;2022-12-20T16:12:32;35.00;;;17.67;;
25437;SDS011;13364;49.084;9.978;2022-12-20T16:15:01;31.35;;;18.67;;
25437;SDS011;13364;49.084;9.978;2022-12-20T16:17:33;38.22;;;21.52;;
25437;SDS011;13364;49.084;9.978;2022-12-20T16:20:00;28.27;;;16.02;;
25437;SDS011;13364;49.084;9.978;2022-12-20T16:22:27;27.63;;;14.63;;
25437;SDS011;13364;49.084;9.978;2022-12-20T16:24:54;28.65;;;14.45;;
25437;SDS011;13364;49.084;9.978;2022-12-20T16:27:21;23.10;;;13.52;;
25437;SDS011;13364;49.084;9.978;2022-12-20T16:29:49;29.48;;;15.18;;
25437;SDS011;13364;49.084;9.978;2022-12-20T16:32:16;28.00;;;17.60;;
25437;SDS011;13364;49.084;9.978;2022-12-20T16:34:46;34.35;;;17.42;;
25437;SDS011;13364;49.084;9.978;2022-12-20T16:37:16;31.33;;;16.53;;
25437;SDS011;13364;49.084;9.978;2022-12-20T16:39:43;24.13;;;14.80;;
25437;SDS011;13364;49.084;9.978;2022-12-20T16:42:13;27.00;;;15.43;;
25437;SDS011;13364;49.084;9.978;2022-12-20T16:44:52;25.58;;;13.70;;
25437;SDS011;13364;49.084;9.978;2022-12-20T16:47:20;23.05;;;13.73;;
25437;SDS011;13364;49.084;9.978;2022-12-20T16:49:47;23.27;;;13.95;;
25437;SDS011;13364;49.084;9.978;2022-12-20T16:52:19;22.70;;;14.02;;
25437;SDS011;13364;49.084;9.978;2022-12-20T16:54:48;25.17;;;13.90;;
25437;SDS011;13364;49.084;9.978;2022-12-20T16:57:15;25.98;;;14.95;;
25437;SDS011;13364;49.084;9.978;2022-12-20T16:59:42;31.23;;;16.35;;
25437;SDS011;13364;49.084;9.978;2022-12-20T17:02:19;25.17;;;14.60;;
25437;SDS011;13364;49.084;9.978;2022-12-20T17:04:52;24.73;;;14.82;;
25437;SDS011;13364;49.084;9.978;2022-12-20T17:07:20;26.38;;;12.75;;
25437;SDS011;13364;49.084;9.978;2022-12-20T17:09:47;24.98;;;13.98;;
25437;SDS011;13364;49.084;9.978;2022-12-20T17:12:32;23.20;;;12.70;;